Αρχική σελίδα
METAR-TAF:

METAR-TAF

Αεροδρόμια :

Διεθνής Αερολιμένας Αθηνών «Ελευθέριος Βενιζέλος»

Αθήνα, Ελλάδα

γεωγραφικό πλάτος: 37-56N, γεωγραφικό μήκος: 023-56E, υψόμετρο: 94 μ

Παρών καιρός

Η αναφορά έγινε 25 λεπτά πριν, στις 13:50 UTC
Άνεμος 12 kt από Α/BA
Θερμοκρασία 25°C
Υγρασία 41%
Πίεση 1021 hPa
Ορατότητα 10 χλμ και άνω
Λίγα νέφη σε ύψος 2000 πόδια

METAR: LGAV 141350Z 06012KT 9999 FEW020 25/11 Q1021 NOSIG

Χρόνος: 17:15 (14:15 UTC)

Πρόγνωση Καιρού

Η αναφορά έγινε 3 ώρες και 15 λεπτά πριν, στις 11:00 UTC
Η πρόγνωση ισχύει από τις 14 στις 12 UTC έως τις 15 στις 12 UTC
Άνεμος 12 kt από BA
Ορατότητα 10 χλμ και άνω
Λίγα νέφη σε ύψος 2500 πόδια
Καθιστάμενος
από 14 στις 18 UTC έως τις 14 στις 20 UTC
Άνεμος 5 kt από μεταβλητές κατευθύνσεις

TAF: LGAV 141100Z 1412/1512 05012KT 9999 FEW025 BECMG 1418/1420 VRB05KT

Μετεωρολογικές αναφορές και προγνώσεις για περισσότερα από 4000 αεροδρόμια (δελτία METAR και TAF).

Οι διαθέσιμοι σταθμοί απεικονίζονται στο χάρτη με κίτρινες και κόκκινες κουκκίδες.

Μετακινήστε το ποντίκι πάνω από τις κουκκίδες για να δείτε το όνομα του σταθμού.

Στη συνέχεια, κάντε κλικ για να δείτε τις μετεωρολογικές αναφορές και τις προγνώσεις καιρού.

Για να αλλάξετε το χάρτη: κάντε κλικ στα πράσινα κουμπιά με τον μαύρο σταυρό για να ζουμάρετε, στο πράσινο κουμπί με την παύλα για να αφαιρέσετε το ζουμ ή στα πράσινα βέλη για να αντιπαραβάλλετε χάρτες.


METAR-TAF: